createdAt,value
2019-04-30T00:00:49.425Z,11.90
2019-04-30T00:03:42.166Z,11.70
2019-04-30T00:06:15.723Z,11.88
2019-04-30T00:08:47.965Z,11.57
2019-04-30T00:11:21.165Z,11.22
2019-04-30T00:13:50.346Z,11.80
2019-04-30T00:16:20.645Z,12.15
2019-04-30T00:18:59.853Z,12.05
2019-04-30T00:21:24.894Z,11.15
2019-04-30T00:23:53.459Z,11.55
2019-04-30T00:26:25.336Z,11.20
2019-04-30T00:28:57.685Z,11.90
2019-04-30T00:31:27.672Z,11.20
2019-04-30T00:34:01.255Z,11.37
2019-04-30T00:36:34.078Z,11.50
2019-04-30T00:39:01.005Z,12.03
2019-04-30T00:41:39.794Z,11.30
2019-04-30T00:44:05.414Z,10.90
2019-04-30T00:46:36.398Z,11.83
2019-04-30T00:49:11.286Z,11.45
2019-04-30T00:51:38.885Z,12.10
2019-04-30T00:54:08.004Z,11.48
2019-04-30T00:56:38.605Z,11.57
2019-04-30T00:59:15.012Z,11.20
2019-04-30T01:01:48.233Z,11.38
2019-04-30T01:04:28.263Z,10.98
2019-04-30T01:07:00.195Z,11.35
2019-04-30T01:09:30.484Z,11.48
2019-04-30T01:11:59.312Z,11.12
2019-04-30T01:14:31.841Z,11.57
2019-04-30T01:16:59.406Z,11.10
2019-04-30T01:19:32.776Z,10.93
2019-04-30T01:22:01.065Z,11.60
2019-04-30T01:24:31.578Z,11.60
2019-04-30T01:29:43.899Z,11.35
2019-04-30T01:32:10.396Z,10.80
2019-04-30T01:34:44.148Z,10.98
2019-04-30T01:37:12.787Z,11.60
2019-04-30T01:39:43.925Z,10.93
2019-04-30T01:42:14.745Z,10.80
2019-04-30T01:47:12.825Z,11.00
2019-04-30T01:49:44.648Z,11.38
2019-04-30T01:52:13.384Z,11.15
2019-04-30T01:54:42.320Z,10.70
2019-04-30T01:57:23.266Z,11.18
2019-04-30T02:00:10.408Z,11.68
2019-04-30T02:02:43.705Z,11.10
2019-04-30T02:05:12.605Z,11.03
2019-04-30T02:07:45.987Z,10.75
2019-04-30T02:10:15.105Z,11.45
2019-04-30T02:12:44.026Z,11.18
2019-04-30T02:15:19.306Z,11.65
2019-04-30T02:17:54.765Z,11.65
2019-04-30T02:20:34.207Z,10.38
2019-04-30T02:23:03.444Z,11.28
2019-04-30T02:25:32.624Z,11.18
2019-04-30T02:28:03.045Z,11.15
2019-04-30T02:30:32.105Z,10.68
2019-04-30T02:33:01.206Z,11.03
2019-04-30T02:35:40.678Z,10.58
2019-04-30T02:38:20.196Z,10.20
2019-04-30T02:40:49.794Z,11.22
2019-04-30T02:45:49.834Z,10.63
2019-04-30T02:48:20.125Z,10.60
2019-04-30T02:50:50.865Z,11.10
2019-04-30T02:53:51.825Z,10.25
2019-04-30T02:58:51.345Z,10.55
2019-04-30T03:01:20.682Z,10.88
2019-04-30T03:03:50.273Z,11.30
2019-04-30T03:06:20.396Z,11.18
2019-04-30T03:08:51.081Z,10.53
2019-04-30T03:11:21.906Z,10.90
2019-04-30T03:13:52.286Z,10.93
2019-04-30T03:16:40.089Z,10.88
2019-04-30T03:19:13.906Z,10.35
2019-04-30T03:21:47.105Z,10.43
2019-04-30T03:24:16.050Z,10.40
2019-04-30T03:26:49.942Z,11.00
2019-04-30T03:29:23.343Z,11.10
2019-04-30T03:34:25.876Z,10.05
2019-04-30T03:36:50.887Z,10.70
2019-04-30T03:39:21.086Z,10.70
2019-04-30T03:41:53.386Z,10.58
2019-04-30T03:44:25.908Z,10.05
2019-04-30T03:46:59.024Z,10.72
2019-04-30T03:49:29.653Z,10.55
2019-04-30T03:51:59.932Z,10.82
2019-04-30T03:54:29.314Z,9.68
2019-04-30T03:57:03.245Z,10.48
2019-04-30T03:59:34.066Z,10.58
2019-04-30T04:02:22.706Z,11.12
2019-04-30T04:04:53.105Z,10.45
2019-04-30T04:07:26.214Z,10.28
2019-04-30T04:10:04.454Z,10.85
2019-04-30T04:12:41.626Z,10.03
2019-04-30T04:15:10.716Z,10.40
2019-04-30T04:17:39.965Z,10.45
2019-04-30T04:20:11.666Z,10.43
2019-04-30T04:22:43.066Z,10.90
2019-04-30T04:25:15.186Z,10.20
2019-04-30T04:27:44.045Z,10.05
2019-04-30T04:30:15.925Z,10.60
2019-04-30T04:32:46.427Z,10.20
2019-04-30T04:35:15.586Z,11.00
2019-04-30T04:37:44.753Z,10.08
2019-04-30T04:40:14.729Z,10.50
2019-04-30T04:42:43.905Z,10.35
2019-04-30T04:45:15.744Z,9.73
2019-04-30T04:47:44.966Z,9.98
2019-04-30T04:50:16.848Z,9.70
2019-04-30T04:52:49.632Z,10.40
2019-04-30T04:55:26.356Z,10.32
2019-04-30T04:57:59.807Z,9.30
2019-04-30T05:00:30.533Z,10.13
2019-04-30T05:03:02.173Z,10.13
2019-04-30T05:05:32.445Z,9.53
2019-04-30T05:08:03.505Z,9.93
2019-04-30T05:10:34.446Z,9.75
2019-04-30T05:13:05.186Z,9.45
2019-04-30T05:15:34.326Z,9.43
2019-04-30T05:18:03.345Z,9.23
2019-04-30T05:20:55.865Z,9.43
2019-04-30T05:23:24.985Z,9.30
2019-04-30T05:25:54.625Z,9.10
2019-04-30T05:28:25.006Z,9.40
2019-04-30T05:30:53.993Z,8.73
2019-04-30T05:33:25.225Z,9.43
2019-04-30T05:35:55.965Z,9.30
2019-04-30T05:38:29.051Z,9.58
2019-04-30T05:40:59.436Z,9.30
2019-04-30T05:43:29.644Z,9.48
2019-04-30T05:46:03.744Z,9.28
2019-04-30T05:48:33.830Z,9.48
2019-04-30T05:51:02.806Z,9.25
2019-04-30T05:53:31.604Z,9.50
2019-04-30T05:56:03.299Z,9.68
2019-04-30T05:58:32.505Z,9.48
2019-04-30T06:01:06.285Z,9.45
2019-04-30T06:03:38.593Z,9.35
2019-04-30T06:06:08.802Z,8.90
2019-04-30T06:08:40.164Z,9.08
2019-04-30T06:11:10.725Z,9.00
2019-04-30T06:13:58.758Z,8.68
2019-04-30T06:16:29.852Z,8.85
2019-04-30T06:18:58.864Z,9.20
2019-04-30T06:21:32.424Z,9.45
2019-04-30T06:24:03.961Z,8.90
2019-04-30T06:26:35.351Z,9.13
2019-04-30T06:29:04.365Z,8.60
2019-04-30T06:31:37.393Z,8.78
2019-04-30T06:36:34.504Z,8.25
2019-04-30T06:39:05.705Z,8.38
2019-04-30T06:41:35.753Z,9.00
2019-04-30T06:44:09.696Z,8.45
2019-04-30T06:46:38.846Z,8.85
2019-04-30T06:49:11.885Z,9.28
2019-04-30T06:51:40.745Z,8.90
2019-04-30T06:54:16.193Z,8.60
2019-04-30T06:56:45.605Z,8.65
2019-04-30T06:59:15.006Z,8.50
2019-04-30T07:01:44.248Z,8.63
2019-04-30T07:04:12.984Z,8.90
2019-04-30T07:09:51.733Z,8.43
2019-04-30T07:12:22.838Z,8.85
2019-04-30T07:14:43.885Z,8.60
2019-04-30T07:17:12.565Z,8.45
2019-04-30T07:19:53.364Z,8.28
2019-04-30T07:22:14.444Z,8.60
2019-04-30T07:24:44.330Z,8.38
2019-04-30T07:27:13.438Z,8.58
2019-04-30T07:29:45.565Z,8.40
2019-04-30T07:32:14.567Z,8.60
2019-04-30T07:34:51.066Z,9.05
2019-04-30T07:37:24.566Z,8.33
2019-04-30T07:39:52.305Z,8.00
2019-04-30T07:42:22.265Z,8.90
2019-04-30T07:45:00.707Z,8.80
2019-04-30T07:47:29.707Z,8.30
2019-04-30T07:50:00.819Z,8.40
2019-04-30T07:52:33.798Z,8.25
2019-04-30T07:57:40.331Z,8.45
2019-04-30T08:00:09.785Z,8.95
2019-04-30T08:02:43.532Z,8.20
2019-04-30T08:05:19.872Z,8.78
2019-04-30T08:07:50.843Z,9.05
2019-04-30T08:10:20.127Z,8.38
2019-04-30T08:12:52.041Z,9.03
2019-04-30T08:15:24.060Z,9.00
2019-04-30T08:18:02.657Z,8.35
2019-04-30T08:20:25.205Z,8.73
2019-04-30T08:25:22.685Z,8.95
2019-04-30T08:27:59.030Z,9.65
2019-04-30T08:30:30.010Z,9.13
2019-04-30T08:33:00.484Z,8.28
2019-04-30T08:38:01.749Z,8.38
2019-04-30T08:40:31.025Z,9.00
2019-04-30T08:43:05.185Z,9.48
2019-04-30T08:45:35.485Z,9.38
2019-04-30T08:48:05.446Z,9.10
2019-04-30T08:50:39.297Z,9.30
2019-04-30T08:53:11.900Z,9.53
2019-04-30T08:55:43.125Z,8.63
2019-04-30T08:58:15.129Z,9.00
2019-04-30T09:03:19.423Z,8.95
2019-04-30T09:05:50.245Z,8.75
2019-04-30T09:08:22.233Z,9.33
2019-04-30T09:10:52.964Z,8.63
2019-04-30T09:15:53.404Z,8.60
2019-04-30T09:18:22.545Z,8.85
2019-04-30T09:20:51.965Z,8.75
2019-04-30T09:23:24.228Z,8.75
2019-04-30T09:25:55.385Z,8.40
2019-04-30T09:28:25.665Z,9.05
2019-04-30T09:30:56.412Z,8.93
2019-04-30T09:33:29.407Z,8.83
2019-04-30T09:36:00.828Z,9.40
2019-04-30T09:38:29.907Z,8.68
2019-04-30T09:40:59.546Z,8.50
2019-04-30T09:43:29.861Z,9.03
2019-04-30T09:46:00.486Z,8.93
2019-04-30T09:48:41.783Z,8.93
2019-04-30T09:51:12.040Z,8.95
2019-04-30T09:53:41.608Z,9.30
2019-04-30T09:56:14.285Z,9.80
2019-04-30T09:58:43.505Z,8.55
2019-04-30T10:01:16.985Z,8.60
2019-04-30T10:03:46.634Z,9.00
2019-04-30T10:06:19.012Z,8.98
2019-04-30T10:08:51.246Z,8.63
2019-04-30T10:11:22.906Z,8.85
2019-04-30T10:13:52.075Z,8.35
2019-04-30T10:16:31.726Z,8.38
2019-04-30T10:19:02.347Z,8.58
2019-04-30T10:21:39.224Z,8.70
2019-04-30T10:24:15.462Z,8.13
2019-04-30T10:26:41.911Z,8.60
2019-04-30T10:29:14.293Z,8.15
2019-04-30T10:31:44.965Z,8.40
2019-04-30T10:36:49.313Z,8.23
2019-04-30T10:41:50.826Z,8.43
2019-04-30T10:44:19.685Z,8.63
2019-04-30T10:46:49.345Z,8.95
2019-04-30T10:49:29.046Z,9.53
2019-04-30T10:52:00.757Z,8.53
2019-04-30T10:54:29.813Z,8.70
2019-04-30T10:59:28.505Z,8.28
2019-04-30T11:01:59.255Z,8.23
2019-04-30T11:04:29.085Z,8.15
2019-04-30T11:07:00.575Z,8.68
2019-04-30T11:09:33.027Z,9.03
2019-04-30T11:12:03.160Z,8.30
2019-04-30T11:14:33.572Z,8.40
2019-04-30T11:17:03.542Z,8.38
2019-04-30T11:19:34.014Z,8.03
2019-04-30T11:22:03.441Z,8.35
2019-04-30T11:24:38.160Z,8.30
2019-04-30T11:27:08.595Z,8.30
2019-04-30T11:29:41.514Z,8.10
2019-04-30T11:32:15.093Z,8.13
2019-04-30T11:34:44.265Z,8.65
2019-04-30T11:37:15.326Z,8.68
2019-04-30T11:39:46.105Z,8.00
2019-04-30T11:44:45.987Z,7.97
2019-04-30T11:47:20.966Z,8.63
2019-04-30T11:49:50.325Z,8.60
2019-04-30T11:52:19.685Z,8.20
2019-04-30T11:54:52.036Z,7.92
2019-04-30T11:57:19.945Z,7.92
2019-04-30T11:59:49.033Z,7.60
2019-04-30T12:02:25.365Z,8.38
2019-04-30T12:04:56.304Z,8.03
2019-04-30T12:07:37.585Z,8.30
2019-04-30T12:10:15.285Z,8.15
2019-04-30T12:12:44.485Z,7.90
2019-04-30T12:15:13.445Z,7.97
2019-04-30T12:17:43.226Z,7.55
2019-04-30T12:20:14.153Z,7.83
2019-04-30T12:22:43.080Z,7.30
2019-04-30T12:25:13.665Z,7.80
2019-04-30T12:27:44.064Z,7.85
2019-04-30T12:30:13.305Z,7.62
2019-04-30T12:32:42.264Z,7.55
2019-04-30T12:35:11.945Z,8.33
2019-04-30T12:37:41.346Z,8.15
2019-04-30T12:40:25.854Z,7.97
2019-04-30T12:42:42.784Z,7.90
2019-04-30T12:45:17.067Z,7.50
2019-04-30T12:47:48.085Z,7.83
2019-04-30T12:50:39.179Z,7.78
2019-04-30T12:53:17.144Z,8.08
2019-04-30T12:56:00.254Z,7.90
2019-04-30T12:58:30.385Z,7.45
2019-04-30T13:00:59.605Z,7.80
2019-04-30T13:03:30.832Z,7.80
2019-04-30T13:06:01.155Z,7.62
2019-04-30T13:10:59.965Z,7.50
2019-04-30T13:13:32.220Z,7.28
2019-04-30T13:16:08.562Z,7.60
2019-04-30T13:18:39.454Z,7.83
2019-04-30T13:23:39.145Z,7.97
2019-04-30T13:26:11.072Z,7.65
2019-04-30T13:29:03.028Z,8.25
2019-04-30T13:31:31.964Z,6.97
2019-04-30T13:34:19.047Z,7.12
2019-04-30T13:36:49.376Z,7.08
2019-04-30T13:39:23.365Z,7.10
2019-04-30T13:41:56.265Z,6.87
2019-04-30T13:44:29.747Z,7.58
2019-04-30T13:47:01.884Z,7.70
2019-04-30T13:49:32.874Z,7.42
2019-04-30T13:52:03.368Z,7.10
2019-04-30T13:54:32.764Z,7.00
2019-04-30T13:57:04.905Z,7.50
2019-04-30T13:59:35.525Z,7.10
2019-04-30T14:04:52.605Z,7.55
2019-04-30T14:10:20.507Z,7.03
2019-04-30T14:12:52.460Z,7.37
2019-04-30T14:15:21.804Z,7.60
2019-04-30T14:17:52.545Z,7.12
2019-04-30T14:22:53.232Z,7.37
2019-04-30T14:27:54.804Z,7.00
2019-04-30T14:30:25.900Z,7.72
2019-04-30T14:35:38.476Z,7.28
2019-04-30T14:38:09.028Z,7.03
2019-04-30T14:40:41.910Z,7.90
2019-04-30T14:43:19.528Z,6.95
2019-04-30T14:46:01.139Z,7.62
2019-04-30T14:48:40.557Z,7.33
2019-04-30T14:51:10.730Z,7.15
2019-04-30T14:53:44.105Z,7.42
2019-04-30T14:56:25.331Z,7.05
2019-04-30T14:59:06.585Z,6.95
2019-04-30T15:01:43.725Z,7.33
2019-04-30T15:04:13.013Z,7.55
2019-04-30T15:07:04.865Z,7.37
2019-04-30T15:09:38.105Z,7.45
2019-04-30T15:12:11.705Z,7.17
2019-04-30T15:14:49.315Z,7.37
2019-04-30T15:17:19.760Z,7.55
2019-04-30T15:22:44.845Z,7.45
2019-04-30T15:25:34.053Z,7.08
2019-04-30T15:28:02.134Z,7.42
2019-04-30T15:30:35.358Z,7.55
2019-04-30T15:33:10.425Z,7.15
2019-04-30T15:35:43.145Z,6.83
2019-04-30T15:38:16.947Z,7.53
2019-04-30T15:40:49.925Z,6.97
2019-04-30T15:43:23.388Z,6.90
2019-04-30T15:45:54.045Z,7.00
2019-04-30T15:48:27.533Z,7.92
2019-04-30T15:50:59.341Z,7.08
2019-04-30T15:53:32.366Z,7.17
2019-04-30T15:56:08.713Z,7.22
2019-04-30T15:58:55.845Z,7.28
2019-04-30T16:01:24.865Z,7.25
2019-04-30T16:03:55.865Z,8.03
2019-04-30T16:06:28.594Z,7.72
2019-04-30T16:08:59.586Z,7.87
2019-04-30T16:14:14.424Z,7.37
2019-04-30T16:19:29.845Z,7.17
2019-04-30T16:21:59.588Z,7.25
2019-04-30T16:24:29.905Z,7.37
2019-04-30T16:27:01.947Z,7.60
2019-04-30T16:29:31.201Z,7.33
2019-04-30T16:32:01.905Z,7.35
2019-04-30T16:34:38.705Z,7.40
2019-04-30T16:37:07.085Z,7.20
2019-04-30T16:39:36.751Z,7.03
2019-04-30T16:42:09.546Z,7.35
2019-04-30T16:44:41.300Z,7.25
2019-04-30T16:47:14.578Z,7.15
2019-04-30T16:52:09.367Z,6.85
2019-04-30T16:54:39.533Z,7.40
2019-04-30T16:57:10.280Z,6.85
2019-04-30T16:59:41.005Z,7.37
2019-04-30T17:02:11.966Z,8.10
2019-04-30T17:04:51.186Z,7.22
2019-04-30T17:07:35.645Z,7.67
2019-04-30T17:10:11.366Z,8.00
2019-04-30T17:12:43.366Z,7.60
2019-04-30T17:15:16.747Z,7.78
2019-04-30T17:17:45.565Z,7.78
2019-04-30T17:20:14.666Z,8.25
2019-04-30T17:22:43.505Z,7.42
2019-04-30T17:25:12.874Z,7.50
2019-04-30T17:27:42.265Z,7.97
2019-04-30T17:30:13.166Z,7.28
2019-04-30T17:32:44.921Z,7.35
2019-04-30T17:35:14.105Z,7.67
2019-04-30T17:37:47.526Z,7.35
2019-04-30T17:40:19.645Z,7.65
2019-04-30T17:42:56.185Z,8.38
2019-04-30T17:45:29.246Z,7.50
2019-04-30T17:48:01.958Z,7.45
2019-04-30T17:50:40.665Z,7.25
2019-04-30T17:53:14.545Z,8.05
2019-04-30T17:55:43.525Z,7.78
2019-04-30T17:58:12.345Z,7.58
2019-04-30T18:00:44.633Z,7.87
2019-04-30T18:03:14.826Z,7.42
2019-04-30T18:05:43.926Z,7.33
2019-04-30T18:08:15.048Z,7.65
2019-04-30T18:10:44.285Z,7.17
2019-04-30T18:13:13.365Z,7.00
2019-04-30T18:15:42.725Z,7.03
2019-04-30T18:18:29.882Z,7.58
2019-04-30T18:21:00.606Z,7.70
2019-04-30T18:26:17.126Z,7.05
2019-04-30T18:28:46.029Z,7.08
2019-04-30T18:31:18.603Z,7.62
2019-04-30T18:33:49.532Z,7.45
2019-04-30T18:36:20.614Z,7.92
2019-04-30T18:38:51.267Z,6.97
2019-04-30T18:41:20.665Z,7.08
2019-04-30T18:46:44.808Z,7.17
2019-04-30T18:49:24.992Z,7.72
2019-04-30T18:52:00.125Z,6.90
2019-04-30T18:54:33.625Z,7.10
2019-04-30T18:57:06.067Z,6.87
2019-04-30T18:59:36.627Z,7.03
2019-04-30T19:02:07.767Z,7.00
2019-04-30T19:05:01.165Z,7.35
2019-04-30T19:07:46.847Z,7.00
2019-04-30T19:10:25.424Z,7.00
2019-04-30T19:13:09.985Z,7.25
2019-04-30T19:16:18.657Z,6.90
2019-04-30T19:18:31.224Z,7.05
2019-04-30T19:21:08.939Z,7.10
2019-04-30T19:23:42.205Z,7.12
2019-04-30T19:26:11.065Z,7.42
2019-04-30T19:28:43.889Z,7.60
2019-04-30T19:31:20.946Z,7.62
2019-04-30T19:33:52.665Z,7.08
2019-04-30T19:36:37.263Z,7.60
2019-04-30T19:39:05.387Z,6.85
2019-04-30T19:41:38.644Z,7.35
2019-04-30T19:44:11.537Z,6.67
2019-04-30T19:46:43.226Z,7.15
2019-04-30T19:49:27.426Z,7.40
2019-04-30T19:52:22.585Z,7.05
2019-04-30T19:55:04.654Z,6.60
2019-04-30T19:57:48.387Z,6.87
2019-04-30T20:00:23.325Z,7.17
2019-04-30T20:02:59.962Z,6.90
2019-04-30T20:05:39.550Z,7.22
2019-04-30T20:08:17.304Z,7.37
2019-04-30T20:10:56.465Z,6.92
2019-04-30T20:13:36.189Z,7.55
2019-04-30T20:15:56.884Z,6.92
2019-04-30T20:18:29.221Z,7.47
2019-04-30T20:21:01.186Z,7.17
2019-04-30T20:23:30.205Z,7.60
2019-04-30T20:26:02.202Z,7.60
2019-04-30T20:28:39.024Z,7.28
2019-04-30T20:33:48.937Z,7.42
2019-04-30T20:36:22.884Z,7.40
2019-04-30T20:39:03.516Z,6.78
2019-04-30T20:44:24.644Z,7.03
2019-04-30T20:47:03.668Z,7.22
2019-04-30T20:49:46.211Z,7.00
2019-04-30T20:52:46.175Z,7.10
2019-04-30T20:55:28.794Z,7.30
2019-04-30T20:58:12.224Z,7.40
2019-04-30T21:01:00.298Z,6.87
2019-04-30T21:03:34.065Z,7.00
2019-04-30T21:06:19.716Z,7.65
2019-04-30T21:08:59.625Z,7.10
2019-04-30T21:11:40.478Z,7.28
2019-04-30T21:14:26.984Z,7.28
2019-04-30T21:17:11.544Z,7.42
2019-04-30T21:19:54.255Z,7.12
2019-04-30T21:22:29.057Z,7.12
2019-04-30T21:25:05.552Z,7.65
2019-04-30T21:27:40.151Z,6.78
2019-04-30T21:30:12.784Z,7.40
2019-04-30T21:32:51.905Z,6.80
2019-04-30T21:35:33.466Z,7.10
2019-04-30T21:38:23.864Z,6.78
2019-04-30T21:41:05.144Z,6.65
2019-04-30T21:43:45.804Z,7.08
2019-04-30T21:46:24.245Z,7.47
2019-04-30T21:48:59.165Z,7.12
2019-04-30T21:51:28.084Z,7.15
2019-04-30T21:54:04.626Z,6.83
2019-04-30T21:59:32.845Z,6.97
2019-04-30T22:02:12.164Z,6.62
2019-04-30T22:04:48.125Z,7.00
2019-04-30T22:07:32.165Z,6.78
2019-04-30T22:10:03.464Z,6.55
2019-04-30T22:12:35.164Z,6.35
2019-04-30T22:15:10.324Z,6.45
2019-04-30T22:17:47.884Z,6.92
2019-04-30T22:20:29.144Z,6.85
2019-04-30T22:23:12.604Z,6.92
2019-04-30T22:26:15.192Z,7.15
2019-04-30T22:28:52.985Z,6.40
2019-04-30T22:31:31.804Z,6.67
2019-04-30T22:34:08.885Z,6.78
2019-04-30T22:36:45.325Z,6.80
2019-04-30T22:39:24.666Z,6.83
2019-04-30T22:42:02.304Z,6.87
2019-04-30T22:44:37.345Z,7.17
2019-04-30T22:47:08.724Z,7.50
2019-04-30T22:49:40.664Z,7.35
2019-04-30T22:52:09.464Z,6.60
2019-04-30T22:54:44.264Z,6.87
2019-04-30T22:57:20.844Z,6.55
2019-04-30T23:00:00.286Z,6.85
2019-04-30T23:02:37.144Z,6.78
2019-04-30T23:05:11.684Z,6.62
2019-04-30T23:07:48.744Z,6.83
2019-04-30T23:10:34.260Z,6.87
2019-04-30T23:13:07.445Z,6.72
2019-04-30T23:15:52.843Z,7.05
2019-04-30T23:18:25.804Z,6.67
2019-04-30T23:20:58.605Z,6.65
2019-04-30T23:23:27.365Z,6.40
2019-04-30T23:26:00.245Z,6.78
2019-04-30T23:28:33.664Z,6.92
2019-04-30T23:31:08.485Z,6.87
2019-04-30T23:33:37.230Z,6.70
2019-04-30T23:36:17.325Z,6.33
2019-04-30T23:38:51.306Z,6.72
2019-04-30T23:41:23.865Z,6.70
2019-04-30T23:43:57.106Z,6.78
2019-04-30T23:46:36.325Z,6.95
2019-04-30T23:49:12.566Z,7.00
2019-04-30T23:54:40.265Z,6.95
2019-04-30T23:57:18.365Z,6.85
2019-04-30T23:59:56.265Z,6.62
